createdAt,value
2023-01-21T00:00:45.668Z,27.13
2023-01-21T00:03:13.022Z,27.55
2023-01-21T00:05:39.981Z,27.85
2023-01-21T00:08:06.610Z,27.05
2023-01-21T00:10:33.631Z,28.30
2023-01-21T00:13:00.185Z,30.27
2023-01-21T00:15:26.831Z,27.60
2023-01-21T00:17:54.080Z,28.35
2023-01-21T00:20:20.722Z,29.02
2023-01-21T00:22:47.352Z,29.35
2023-01-21T00:25:13.896Z,28.38
2023-01-21T00:27:41.095Z,29.45
2023-01-21T00:30:08.586Z,29.67
2023-01-21T00:32:35.151Z,31.63
2023-01-21T00:35:01.715Z,31.27
2023-01-21T00:37:28.253Z,31.45
2023-01-21T00:39:54.780Z,29.67
2023-01-21T00:42:21.338Z,31.90
2023-01-21T00:44:47.911Z,31.00
2023-01-21T00:47:14.499Z,31.90
2023-01-21T00:49:42.190Z,30.30
2023-01-21T00:52:08.807Z,31.20
2023-01-21T00:54:35.352Z,29.25
2023-01-21T00:57:01.946Z,31.90
2023-01-21T00:59:28.718Z,29.52
2023-01-21T01:01:55.274Z,29.67
2023-01-21T01:04:22.987Z,29.83
2023-01-21T01:06:49.918Z,31.00
2023-01-21T01:09:16.695Z,29.83
2023-01-21T01:11:43.481Z,29.52
2023-01-21T01:14:10.034Z,30.23
2023-01-21T01:16:36.622Z,29.17
2023-01-21T01:19:03.446Z,30.58
2023-01-21T01:21:30.239Z,31.13
2023-01-21T01:24:00.641Z,28.13
2023-01-21T01:26:27.490Z,29.75
2023-01-21T01:28:54.056Z,29.67
2023-01-21T01:31:21.837Z,28.73
2023-01-21T01:33:48.739Z,29.85
2023-01-21T01:36:18.052Z,30.65
2023-01-21T01:38:45.340Z,28.27
2023-01-21T01:41:24.385Z,29.45
2023-01-21T01:43:55.808Z,29.02
2023-01-21T01:46:23.693Z,29.02
2023-01-21T01:48:57.430Z,29.02
2023-01-21T01:51:32.935Z,29.70
2023-01-21T01:54:00.450Z,28.55
2023-01-21T01:56:29.227Z,30.65
2023-01-21T01:58:56.168Z,29.17
2023-01-21T02:01:23.442Z,28.92
2023-01-21T02:03:59.275Z,30.88
2023-01-21T02:06:26.624Z,29.50
2023-01-21T02:08:53.799Z,29.83
2023-01-21T02:11:20.706Z,29.02
2023-01-21T02:13:53.256Z,29.70
2023-01-21T02:16:46.186Z,28.10
2023-01-21T02:19:18.786Z,28.58
2023-01-21T02:22:02.075Z,27.80
2023-01-21T02:24:53.055Z,28.83
2023-01-21T02:27:48.961Z,30.25
2023-01-21T02:30:36.615Z,30.50
2023-01-21T02:33:41.292Z,29.50
2023-01-21T02:36:44.498Z,28.88
2023-01-21T02:39:35.714Z,28.95
2023-01-21T02:42:22.326Z,29.00
2023-01-21T02:45:06.399Z,29.67
2023-01-21T02:47:40.679Z,29.98
2023-01-21T02:50:17.696Z,28.05
2023-01-21T02:52:44.372Z,28.25
2023-01-21T02:55:16.679Z,29.05
2023-01-21T02:57:48.750Z,28.52
2023-01-21T03:00:33.403Z,28.83
2023-01-21T03:03:18.233Z,28.30
2023-01-21T03:05:57.131Z,29.10
2023-01-21T03:08:32.721Z,27.40
2023-01-21T03:11:17.033Z,27.83
2023-01-21T03:14:13.369Z,27.48
2023-01-21T03:17:00.260Z,26.42
2023-01-21T03:19:42.973Z,27.35
2023-01-21T03:22:15.085Z,27.48
2023-01-21T03:24:45.356Z,27.88
2023-01-21T03:27:15.069Z,28.25
2023-01-21T03:29:43.723Z,26.30
2023-01-21T03:32:15.524Z,27.17
2023-01-21T03:34:48.261Z,27.73
2023-01-21T03:37:17.943Z,28.33
2023-01-21T03:39:44.579Z,27.65
2023-01-21T03:42:12.739Z,26.70
2023-01-21T03:44:40.154Z,27.77
2023-01-21T03:47:29.564Z,29.20
2023-01-21T03:50:01.286Z,27.77
2023-01-21T03:52:28.627Z,29.08
2023-01-21T03:54:55.354Z,28.15
2023-01-21T03:57:22.048Z,28.85
2023-01-21T03:59:48.721Z,28.15
2023-01-21T04:02:20.311Z,30.33
2023-01-21T04:04:47.682Z,29.02
2023-01-21T04:07:17.015Z,30.02
2023-01-21T04:09:43.650Z,30.60
2023-01-21T04:12:10.663Z,28.58
2023-01-21T04:14:37.463Z,30.20
2023-01-21T04:17:04.847Z,29.33
2023-01-21T04:19:31.597Z,30.27
2023-01-21T04:21:58.299Z,31.52
2023-01-21T04:24:25.251Z,31.63
2023-01-21T04:26:51.944Z,32.00
2023-01-21T04:29:19.012Z,31.00
2023-01-21T04:31:45.716Z,31.55
2023-01-21T04:34:12.418Z,31.83
2023-01-21T04:36:39.103Z,33.60
2023-01-21T04:39:05.926Z,30.23
2023-01-21T04:41:32.478Z,32.17
2023-01-21T04:43:59.051Z,32.15
2023-01-21T04:46:25.643Z,31.77
2023-01-21T04:48:52.216Z,32.20
2023-01-21T04:51:18.898Z,33.42
2023-01-21T04:53:45.544Z,33.58
2023-01-21T04:56:12.153Z,33.03
2023-01-21T04:58:38.727Z,32.45
2023-01-21T05:01:05.488Z,32.30
2023-01-21T05:03:32.099Z,32.25
2023-01-21T05:05:58.911Z,33.28
2023-01-21T05:08:25.557Z,30.98
2023-01-21T05:10:52.229Z,31.20
2023-01-21T05:13:18.756Z,32.03
2023-01-21T05:15:45.338Z,30.15
2023-01-21T05:18:11.951Z,31.92
2023-01-21T05:20:38.472Z,30.52
2023-01-21T05:23:05.053Z,31.55
2023-01-21T05:25:31.640Z,32.38
2023-01-21T05:27:58.327Z,31.02
2023-01-21T05:30:25.031Z,31.55
2023-01-21T05:32:55.266Z,30.15
2023-01-21T05:35:23.476Z,31.23
2023-01-21T05:37:50.210Z,31.92
2023-01-21T05:40:17.947Z,30.92
2023-01-21T05:42:45.903Z,30.42
2023-01-21T05:45:12.491Z,30.10
2023-01-21T05:47:39.283Z,32.05
2023-01-21T05:50:06.466Z,32.15
2023-01-21T05:52:33.004Z,31.52
2023-01-21T05:55:02.239Z,31.13
2023-01-21T05:57:29.645Z,31.05
2023-01-21T05:59:56.510Z,32.22
2023-01-21T06:02:23.146Z,31.35
2023-01-21T06:04:49.736Z,31.50
2023-01-21T06:07:16.511Z,30.67
2023-01-21T06:09:43.173Z,32.55
2023-01-21T06:12:09.707Z,31.17
2023-01-21T06:14:36.263Z,29.98
2023-01-21T06:17:02.840Z,31.45
2023-01-21T06:19:29.420Z,30.35
2023-01-21T06:21:55.944Z,30.58
2023-01-21T06:24:22.629Z,32.25
2023-01-21T06:26:49.231Z,30.98
2023-01-21T06:29:15.861Z,31.50
2023-01-21T06:31:42.509Z,29.55
2023-01-21T06:34:12.610Z,30.38
2023-01-21T06:36:40.906Z,31.17
2023-01-21T06:39:09.529Z,30.73
2023-01-21T06:41:36.086Z,31.33
2023-01-21T06:44:03.565Z,30.20
2023-01-21T06:46:30.272Z,31.05
2023-01-21T06:48:56.903Z,29.15
2023-01-21T06:51:23.570Z,31.55
2023-01-21T06:53:50.154Z,30.50
2023-01-21T06:56:16.729Z,32.85
2023-01-21T06:58:43.292Z,30.25
2023-01-21T07:01:09.940Z,31.35
2023-01-21T07:03:36.451Z,32.33
2023-01-21T07:06:03.021Z,29.30
2023-01-21T07:08:29.643Z,29.98
2023-01-21T07:10:56.187Z,30.10
2023-01-21T07:13:23.457Z,33.05
2023-01-21T07:15:50.325Z,35.53
2023-01-21T07:18:16.867Z,30.30
2023-01-21T07:20:43.563Z,29.35
2023-01-21T07:23:10.086Z,30.30
2023-01-21T07:25:37.472Z,29.58
2023-01-21T07:28:04.216Z,29.30
2023-01-21T07:30:30.756Z,30.63
2023-01-21T07:32:57.459Z,30.08
2023-01-21T07:35:24.040Z,30.70
2023-01-21T07:37:50.619Z,30.67
2023-01-21T07:40:17.501Z,29.25
2023-01-21T07:42:44.132Z,29.92
2023-01-21T07:45:10.866Z,30.90
2023-01-21T07:47:37.479Z,31.00
2023-01-21T07:50:08.589Z,31.45
2023-01-21T07:52:35.546Z,29.83
2023-01-21T07:55:02.111Z,29.50
2023-01-21T07:57:28.853Z,29.63
2023-01-21T07:59:55.788Z,30.17
2023-01-21T08:02:22.743Z,28.98
2023-01-21T08:04:49.496Z,28.88
2023-01-21T08:07:16.277Z,29.33
2023-01-21T08:09:42.949Z,29.13
2023-01-21T08:12:10.665Z,32.47
2023-01-21T08:14:38.622Z,28.92
2023-01-21T08:17:05.243Z,29.30
2023-01-21T08:19:31.799Z,29.00
2023-01-21T08:21:58.441Z,28.15
2023-01-21T08:24:25.071Z,29.08
2023-01-21T08:26:51.581Z,29.30
2023-01-21T08:29:18.159Z,30.77
2023-01-21T08:31:44.809Z,30.13
2023-01-21T08:34:11.391Z,32.15
2023-01-21T08:36:39.029Z,29.88
2023-01-21T08:39:06.391Z,28.90
2023-01-21T08:41:33.702Z,27.95
2023-01-21T08:44:00.704Z,28.30
2023-01-21T08:46:27.287Z,30.08
2023-01-21T08:48:53.860Z,30.02
2023-01-21T08:51:20.472Z,29.77
2023-01-21T08:53:50.065Z,31.85
2023-01-21T08:56:17.689Z,29.83
2023-01-21T08:58:44.794Z,30.25
2023-01-21T09:01:15.258Z,30.55
2023-01-21T09:03:42.268Z,31.58
2023-01-21T09:06:11.344Z,31.42
2023-01-21T09:08:37.930Z,30.77
2023-01-21T09:11:06.809Z,31.65
2023-01-21T09:13:38.634Z,32.78
2023-01-21T09:16:10.670Z,32.95
2023-01-21T09:18:37.741Z,39.22
2023-01-21T09:21:05.877Z,40.45
2023-01-21T09:23:34.765Z,40.70
2023-01-21T09:26:01.368Z,39.70
2023-01-21T09:28:29.767Z,33.42
2023-01-21T09:31:01.552Z,30.75
2023-01-21T09:33:30.064Z,30.30
2023-01-21T09:36:02.583Z,30.05
2023-01-21T09:38:30.130Z,28.85
2023-01-21T09:41:04.330Z,30.92
2023-01-21T09:43:38.790Z,29.33
2023-01-21T09:46:12.156Z,29.52
2023-01-21T09:48:43.702Z,31.67
2023-01-21T09:51:19.841Z,32.65
2023-01-21T09:53:55.492Z,34.13
2023-01-21T09:56:28.268Z,34.67
2023-01-21T09:59:07.036Z,34.78
2023-01-21T10:01:40.905Z,33.03
2023-01-21T10:04:33.674Z,31.63
2023-01-21T10:07:06.006Z,31.15
2023-01-21T10:09:47.667Z,30.52
2023-01-21T10:12:19.979Z,30.98
2023-01-21T10:14:58.635Z,31.00
2023-01-21T10:17:47.591Z,30.77
2023-01-21T10:20:24.482Z,28.65
2023-01-21T10:23:03.541Z,28.83
2023-01-21T10:25:32.472Z,29.20
2023-01-21T10:28:04.048Z,28.17
2023-01-21T10:30:33.718Z,29.55
2023-01-21T10:33:00.608Z,29.02
2023-01-21T10:35:52.492Z,30.38
2023-01-21T10:38:45.299Z,29.83
2023-01-21T10:41:53.163Z,28.65
2023-01-21T10:44:27.043Z,29.02
2023-01-21T10:47:19.643Z,29.90
2023-01-21T10:49:46.213Z,28.60
2023-01-21T10:52:45.290Z,29.70
2023-01-21T10:55:45.470Z,28.13
2023-01-21T10:58:18.086Z,27.85
2023-01-21T11:00:48.614Z,31.70
2023-01-21T11:03:35.132Z,29.23
2023-01-21T11:06:04.664Z,31.30
2023-01-21T11:08:31.393Z,30.35
2023-01-21T11:10:59.466Z,31.13
2023-01-21T11:13:26.501Z,31.17
2023-01-21T11:15:56.094Z,30.70
2023-01-21T11:18:42.874Z,30.50
2023-01-21T11:21:22.733Z,30.88
2023-01-21T11:24:20.584Z,31.60
2023-01-21T11:26:55.925Z,35.33
2023-01-21T11:29:24.669Z,29.48
2023-01-21T11:32:01.955Z,31.17
2023-01-21T11:34:28.856Z,30.88
2023-01-21T11:37:04.145Z,32.30
2023-01-21T11:39:37.095Z,33.03
2023-01-21T11:42:13.692Z,32.22
2023-01-21T11:44:58.353Z,31.40
2023-01-21T11:47:40.714Z,33.05
2023-01-21T11:50:18.200Z,30.17
2023-01-21T11:52:45.324Z,30.38
2023-01-21T11:55:23.879Z,30.55
2023-01-21T11:57:54.858Z,32.78
2023-01-21T12:00:24.872Z,31.17
2023-01-21T12:02:57.245Z,31.60
2023-01-21T12:05:23.787Z,32.92
2023-01-21T12:07:51.615Z,32.17
2023-01-21T12:10:35.882Z,32.60
2023-01-21T12:13:16.879Z,34.55
2023-01-21T12:16:06.073Z,34.53
2023-01-21T12:18:54.639Z,35.45
2023-01-21T12:21:31.592Z,34.92
2023-01-21T12:24:01.013Z,35.15
2023-01-21T12:26:53.234Z,36.90
2023-01-21T12:29:54.984Z,38.70
2023-01-21T12:32:31.454Z,39.00
2023-01-21T12:35:09.438Z,39.25
2023-01-21T12:37:51.288Z,37.65
2023-01-21T12:40:51.847Z,37.00
2023-01-21T12:43:27.282Z,37.55
2023-01-21T12:46:00.283Z,37.75
2023-01-21T12:48:33.355Z,38.65
2023-01-21T12:51:07.004Z,37.53
2023-01-21T12:53:42.473Z,38.10
2023-01-21T12:56:20.516Z,37.30
2023-01-21T12:58:55.112Z,38.63
2023-01-21T13:01:33.969Z,38.80
2023-01-21T13:04:38.971Z,38.55
2023-01-21T13:07:11.456Z,40.17
2023-01-21T13:09:46.923Z,38.28
2023-01-21T13:12:20.708Z,37.60
2023-01-21T13:14:55.255Z,38.53
2023-01-21T13:17:30.876Z,38.75
2023-01-21T13:19:59.208Z,38.35
2023-01-21T13:22:25.823Z,37.47
2023-01-21T13:25:05.448Z,38.92
2023-01-21T13:27:44.586Z,39.97
2023-01-21T13:30:26.741Z,39.38
2023-01-21T13:33:17.944Z,40.63
2023-01-21T13:36:03.289Z,42.08
2023-01-21T13:38:46.858Z,40.20
2023-01-21T13:41:16.823Z,40.33
2023-01-21T13:44:09.834Z,40.70
2023-01-21T13:47:09.027Z,41.75
2023-01-21T13:49:49.452Z,38.58
2023-01-21T13:52:43.790Z,38.40
2023-01-21T13:55:31.579Z,37.83
2023-01-21T13:58:02.630Z,37.15
2023-01-21T14:00:40.020Z,36.70
2023-01-21T14:03:19.527Z,36.72
2023-01-21T14:06:08.484Z,34.58
2023-01-21T14:08:45.526Z,35.58
2023-01-21T14:11:23.740Z,33.70
2023-01-21T14:14:00.988Z,32.88
2023-01-21T14:16:30.551Z,31.45
2023-01-21T14:19:18.413Z,31.27
2023-01-21T14:21:58.635Z,31.23
2023-01-21T14:24:28.637Z,29.73
2023-01-21T14:27:16.734Z,30.90
2023-01-21T14:29:46.964Z,30.13
2023-01-21T14:32:26.966Z,32.75
2023-01-21T14:35:13.873Z,32.83
2023-01-21T14:38:03.269Z,32.65
2023-01-21T14:40:33.303Z,34.47
2023-01-21T14:42:59.990Z,33.60
2023-01-21T14:46:23.633Z,33.65
2023-01-21T14:49:36.171Z,35.45
2023-01-21T14:52:03.592Z,35.63
2023-01-21T14:54:30.193Z,35.60
2023-01-21T14:57:13.795Z,34.20
2023-01-21T14:59:46.279Z,33.35
2023-01-21T15:02:37.328Z,32.38
2023-01-21T15:05:25.881Z,32.72
2023-01-21T15:08:23.868Z,32.08
2023-01-21T15:11:03.280Z,32.90
2023-01-21T15:13:32.672Z,32.47
2023-01-21T15:16:04.086Z,31.85
2023-01-21T15:18:50.902Z,31.00
2023-01-21T15:21:37.339Z,32.35
2023-01-21T15:24:23.031Z,30.35
2023-01-21T15:27:22.386Z,30.98
2023-01-21T15:29:54.741Z,30.20
2023-01-21T15:32:28.889Z,31.42
2023-01-21T15:35:18.774Z,32.17
2023-01-21T15:37:48.785Z,31.77
2023-01-21T15:40:23.287Z,31.42
2023-01-21T15:42:58.849Z,31.05
2023-01-21T15:46:19.513Z,30.38
2023-01-21T15:48:54.142Z,31.25
2023-01-21T15:51:47.929Z,29.55
2023-01-21T15:54:56.588Z,30.15
2023-01-21T15:57:34.789Z,30.05
2023-01-21T16:00:26.858Z,30.00
2023-01-21T16:03:00.441Z,30.38
2023-01-21T16:05:50.266Z,30.15
2023-01-21T16:08:44.931Z,30.52
2023-01-21T16:11:32.883Z,28.08
2023-01-21T16:14:30.167Z,28.02
2023-01-21T16:17:12.010Z,27.90
2023-01-21T16:19:45.454Z,29.60
2023-01-21T16:22:15.353Z,31.05
2023-01-21T16:24:49.860Z,30.38
2023-01-21T16:27:22.941Z,29.40
2023-01-21T16:29:58.575Z,28.08
2023-01-21T16:32:26.900Z,28.48
2023-01-21T16:34:54.148Z,27.15
2023-01-21T16:37:24.015Z,26.27
2023-01-21T16:40:13.999Z,26.67
2023-01-21T16:42:44.266Z,26.20
2023-01-21T16:45:21.591Z,27.40
2023-01-21T16:47:59.427Z,27.45
2023-01-21T16:50:28.431Z,26.42
2023-01-21T16:52:57.215Z,27.27
2023-01-21T16:55:26.895Z,25.20
2023-01-21T16:57:56.861Z,26.75
2023-01-21T17:00:31.488Z,26.10
2023-01-21T17:02:59.847Z,23.80
2023-01-21T17:05:32.898Z,25.88
2023-01-21T17:08:03.212Z,24.05
2023-01-21T17:10:39.963Z,24.55
2023-01-21T17:13:13.925Z,24.40
2023-01-21T17:15:43.344Z,25.00
2023-01-21T17:18:21.125Z,22.88
2023-01-21T17:20:51.313Z,23.73
2023-01-21T17:23:22.660Z,24.20
2023-01-21T17:25:58.667Z,22.83
2023-01-21T17:28:37.706Z,23.23
2023-01-21T17:31:10.575Z,23.08
2023-01-21T17:33:37.489Z,23.75
2023-01-21T17:36:29.865Z,23.13
2023-01-21T17:38:56.463Z,23.98
2023-01-21T17:41:27.627Z,23.38
2023-01-21T17:43:56.134Z,24.52
2023-01-21T17:46:24.367Z,24.42
2023-01-21T17:48:57.949Z,23.65
2023-01-21T17:51:30.424Z,24.58
2023-01-21T17:54:00.688Z,25.15
2023-01-21T17:56:42.613Z,24.08
2023-01-21T17:59:37.725Z,24.35
2023-01-21T18:02:12.419Z,24.50
2023-01-21T18:07:20.829Z,23.30
2023-01-21T18:09:47.395Z,25.30
2023-01-21T18:12:14.209Z,25.25
2023-01-21T18:14:41.829Z,23.52
2023-01-21T18:17:17.038Z,24.13
2023-01-21T18:19:43.590Z,23.70
2023-01-21T18:22:22.585Z,25.42
2023-01-21T18:24:49.211Z,24.35
2023-01-21T18:27:17.325Z,25.42
2023-01-21T18:29:44.809Z,25.90
2023-01-21T18:32:14.212Z,25.35
2023-01-21T18:34:40.903Z,25.05
2023-01-21T18:37:16.082Z,24.00
2023-01-21T18:39:42.970Z,24.77
2023-01-21T18:42:15.280Z,24.77
2023-01-21T18:44:42.047Z,25.73
2023-01-21T18:47:14.115Z,26.33
2023-01-21T18:49:41.177Z,26.30
2023-01-21T18:52:11.121Z,26.95
2023-01-21T18:54:37.672Z,27.63
2023-01-21T18:57:10.164Z,25.85
2023-01-21T18:59:37.268Z,26.75
2023-01-21T19:02:06.055Z,27.00
2023-01-21T19:04:32.682Z,26.40
2023-01-21T19:07:01.339Z,25.30
2023-01-21T19:09:27.908Z,26.48
2023-01-21T19:11:54.463Z,27.35
2023-01-21T19:14:21.024Z,28.17
2023-01-21T19:16:47.682Z,27.65
2023-01-21T19:19:16.904Z,27.25
2023-01-21T19:21:43.495Z,26.67
2023-01-21T19:24:12.139Z,27.45
2023-01-21T19:26:39.185Z,25.92
2023-01-21T19:29:11.474Z,24.33
2023-01-21T19:31:38.116Z,27.25
2023-01-21T19:34:04.720Z,25.95
2023-01-21T19:36:31.375Z,25.13
2023-01-21T19:38:59.404Z,24.83
2023-01-21T19:41:26.001Z,26.35
2023-01-21T19:43:52.560Z,26.13
2023-01-21T19:46:19.731Z,26.35
2023-01-21T19:48:50.261Z,24.63
2023-01-21T19:51:17.028Z,26.17
2023-01-21T19:53:43.647Z,25.33
2023-01-21T19:56:16.031Z,26.27
2023-01-21T19:58:42.675Z,25.50
2023-01-21T20:01:09.252Z,24.85
2023-01-21T20:03:35.845Z,25.50
2023-01-21T20:06:05.432Z,26.25
2023-01-21T20:08:33.021Z,24.88
2023-01-21T20:10:59.590Z,27.55
2023-01-21T20:13:28.490Z,26.67
2023-01-21T20:15:55.490Z,25.73
2023-01-21T20:18:25.147Z,25.73
2023-01-21T20:20:52.426Z,25.27
2023-01-21T20:23:20.743Z,26.13
2023-01-21T20:25:51.153Z,24.77
2023-01-21T20:28:24.235Z,26.15
2023-01-21T20:30:52.095Z,25.30
2023-01-21T20:33:22.157Z,25.75
2023-01-21T20:35:50.971Z,25.42
2023-01-21T20:38:23.184Z,24.98
2023-01-21T20:40:49.770Z,24.73
2023-01-21T20:43:18.943Z,23.13
2023-01-21T20:45:48.914Z,24.45
2023-01-21T20:48:21.121Z,24.95
2023-01-21T20:50:48.438Z,23.70
2023-01-21T20:53:15.003Z,25.33
2023-01-21T20:55:45.033Z,26.75
2023-01-21T20:58:13.822Z,25.00
2023-01-21T21:00:41.262Z,24.83
2023-01-21T21:03:08.081Z,25.52
2023-01-21T21:05:34.658Z,25.10
2023-01-21T21:08:01.226Z,24.08
2023-01-21T21:10:38.351Z,24.73
2023-01-21T21:13:05.220Z,25.85
2023-01-21T21:15:34.719Z,25.98
2023-01-21T21:18:05.578Z,25.23
2023-01-21T21:20:35.391Z,26.20
2023-01-21T21:23:02.152Z,25.30
2023-01-21T21:25:32.011Z,24.83
2023-01-21T21:27:58.969Z,25.27
2023-01-21T21:30:32.941Z,26.10
2023-01-21T21:33:00.873Z,26.02
2023-01-21T21:35:47.020Z,23.83
2023-01-21T21:38:23.384Z,24.13
2023-01-21T21:40:53.131Z,25.67
2023-01-21T21:43:33.214Z,24.83
2023-01-21T21:46:30.606Z,25.73
2023-01-21T21:48:57.240Z,25.30
2023-01-21T21:51:24.201Z,24.75
2023-01-21T21:53:51.409Z,24.40
2023-01-21T21:56:20.508Z,25.42
2023-01-21T21:58:47.491Z,25.90
2023-01-21T22:01:17.164Z,25.45
2023-01-21T22:03:43.868Z,24.77
2023-01-21T22:06:11.745Z,24.52
2023-01-21T22:08:40.468Z,24.90
2023-01-21T22:11:09.402Z,24.92
2023-01-21T22:13:40.098Z,26.17
2023-01-21T22:16:10.598Z,24.90
2023-01-21T22:18:37.266Z,25.92
2023-01-21T22:21:10.487Z,25.73
2023-01-21T22:23:37.774Z,25.23
2023-01-21T22:26:06.800Z,25.42
2023-01-21T22:28:35.061Z,24.35
2023-01-21T22:31:06.991Z,25.55
2023-01-21T22:33:35.099Z,25.52
2023-01-21T22:36:07.157Z,24.52
2023-01-21T22:38:34.925Z,23.77
2023-01-21T22:41:02.097Z,25.13
2023-01-21T22:43:29.293Z,23.92
2023-01-21T22:45:57.026Z,23.85
2023-01-21T22:48:24.044Z,23.67
2023-01-21T22:50:58.311Z,24.55
2023-01-21T22:53:26.236Z,23.92
2023-01-21T22:55:57.098Z,24.13
2023-01-21T22:58:24.922Z,23.70
2023-01-21T23:00:52.879Z,23.50
2023-01-21T23:03:20.804Z,24.58
2023-01-21T23:05:47.636Z,24.20
2023-01-21T23:08:15.487Z,24.13
2023-01-21T23:10:42.688Z,24.30
2023-01-21T23:13:10.712Z,23.83
2023-01-21T23:15:42.131Z,24.38
2023-01-21T23:18:08.781Z,24.90
2023-01-21T23:20:36.847Z,23.40
2023-01-21T23:23:04.017Z,24.30
2023-01-21T23:25:30.607Z,22.92
2023-01-21T23:27:57.146Z,23.00
2023-01-21T23:30:23.681Z,23.20
2023-01-21T23:32:50.276Z,23.20
2023-01-21T23:35:19.079Z,23.25
2023-01-21T23:37:45.652Z,24.45
2023-01-21T23:40:12.439Z,23.60
2023-01-21T23:42:38.987Z,22.35
2023-01-21T23:45:05.726Z,23.58
2023-01-21T23:47:32.298Z,22.45
2023-01-21T23:49:58.903Z,24.38
2023-01-21T23:52:25.641Z,24.00
2023-01-21T23:54:52.245Z,22.70
2023-01-21T23:57:19.620Z,25.42
2023-01-21T23:59:46.206Z,23.17
